<?xml version="1.0" encoding="UTF-8" standalone="no" ?>
<gpx xmlns="http://www.topografix.com/GPX/1/1" xmlns:xsi="http://www.w3.org/2001/XMLSchema-instance" xsi:schemaLocation="http://www.topografix.com/GPX/1/1 http://www.topografix.com/GPX/1/1/gpx.xsd" version="1.1" creator="VisuGPX - https://www.visugpx.com">
  <metadata>
    <name>Moliere - Sure - Mortier - Boeufs</name>
    <desc><![CDATA[VTT]]></desc>
  </metadata>
  <trk>
    <name><![CDATA[Moliere - Sure - Mortier - Boeufs]]></name>
    <trkseg>
      <trkpt lat="45.19834" lon="5.59066">
        <ele>1704</ele>
        <time>2015-08-12T05:43:48.255Z</time>
      </trkpt>
      <trkpt lat="45.19839" lon="5.59075">
        <ele>1683</ele>
        <time>2015-08-12T05:46:55.479Z</time>
      </trkpt>
      <trkpt lat="45.19835" lon="5.59097">
        <ele>1685</ele>
        <time>2015-08-12T05:47:01.315Z</time>
      </trkpt>
      <trkpt lat="45.19811" lon="5.59113">
        <ele>1683</ele>
        <time>2015-08-12T05:47:10.499Z</time>
      </trkpt>
      <trkpt lat="45.19789" lon="5.59104">
        <ele>1678</ele>
        <time>2015-08-12T05:47:21.307Z</time>
      </trkpt>
      <trkpt lat="45.19784" lon="5.59112">
        <ele>1679</ele>
        <time>2015-08-12T05:47:24.346Z</time>
      </trkpt>
      <trkpt lat="45.19785" lon="5.59127">
        <ele>1674</ele>
        <time>2015-08-12T05:47:30.329Z</time>
      </trkpt>
      <trkpt lat="45.19782" lon="5.59137">
        <ele>1674</ele>
        <time>2015-08-12T05:47:34.333Z</time>
      </trkpt>
      <trkpt lat="45.19789" lon="5.5917">
        <ele>1679</ele>
        <time>2015-08-12T05:47:46.277Z</time>
      </trkpt>
      <trkpt lat="45.19835" lon="5.59197">
        <ele>1683</ele>
        <time>2015-08-12T05:48:03.241Z</time>
      </trkpt>
      <trkpt lat="45.19879" lon="5.59179">
        <ele>1678</ele>
        <time>2015-08-12T05:48:12.236Z</time>
      </trkpt>
      <trkpt lat="45.19905" lon="5.59185">
        <ele>1683</ele>
        <time>2015-08-12T05:48:18.296Z</time>
      </trkpt>
      <trkpt lat="45.19916" lon="5.59195">
        <ele>1684</ele>
        <time>2015-08-12T05:48:20.293Z</time>
      </trkpt>
      <trkpt lat="45.19931" lon="5.5919">
        <ele>1684</ele>
        <time>2015-08-12T05:48:23.233Z</time>
      </trkpt>
      <trkpt lat="45.19955" lon="5.59195">
        <ele>1684</ele>
        <time>2015-08-12T05:48:28.243Z</time>
      </trkpt>
      <trkpt lat="45.19984" lon="5.59193">
        <ele>1686</ele>
        <time>2015-08-12T05:48:33.283Z</time>
      </trkpt>
      <trkpt lat="45.19998" lon="5.59199">
        <ele>1687</ele>
        <time>2015-08-12T05:48:36.332Z</time>
      </trkpt>
      <trkpt lat="45.20019" lon="5.59196">
        <ele>1683</ele>
        <time>2015-08-12T05:48:40.285Z</time>
      </trkpt>
      <trkpt lat="45.20072" lon="5.59224">
        <ele>1676</ele>
        <time>2015-08-12T05:48:53.527Z</time>
      </trkpt>
      <trkpt lat="45.20121" lon="5.59221">
        <ele>1679</ele>
        <time>2015-08-12T05:49:01.314Z</time>
      </trkpt>
      <trkpt lat="45.20148" lon="5.59239">
        <ele>1681</ele>
        <time>2015-08-12T05:49:06.259Z</time>
      </trkpt>
      <trkpt lat="45.20188" lon="5.59245">
        <ele>1688</ele>
        <time>2015-08-12T05:49:13.309Z</time>
      </trkpt>
      <trkpt lat="45.20227" lon="5.59269">
        <ele>1691</ele>
        <time>2015-08-12T05:49:20.272Z</time>
      </trkpt>
      <trkpt lat="45.20271" lon="5.59276">
        <ele>1692</ele>
        <time>2015-08-12T05:49:30.269Z</time>
      </trkpt>
      <trkpt lat="45.20321" lon="5.59295">
        <ele>1695</ele>
        <time>2015-08-12T05:49:40.308Z</time>
      </trkpt>
      <trkpt lat="45.20345" lon="5.59289">
        <ele>1691</ele>
        <time>2015-08-12T05:49:45.270Z</time>
      </trkpt>
      <trkpt lat="45.20386" lon="5.59318">
        <ele>1691</ele>
        <time>2015-08-12T05:49:52.295Z</time>
      </trkpt>
      <trkpt lat="45.20412" lon="5.59324">
        <ele>1691</ele>
        <time>2015-08-12T05:49:56.326Z</time>
      </trkpt>
      <trkpt lat="45.20439" lon="5.59314">
        <ele>1687</ele>
        <time>2015-08-12T05:50:00.282Z</time>
      </trkpt>
      <trkpt lat="45.20467" lon="5.59321">
        <ele>1682</ele>
        <time>2015-08-12T05:50:07.239Z</time>
      </trkpt>
      <trkpt lat="45.20497" lon="5.59293">
        <ele>1681</ele>
        <time>2015-08-12T05:50:17.272Z</time>
      </trkpt>
      <trkpt lat="45.20517" lon="5.59286">
        <ele>1683</ele>
        <time>2015-08-12T05:50:20.237Z</time>
      </trkpt>
      <trkpt lat="45.20528" lon="5.59273">
        <ele>1454</ele>
        <time>2015-08-12T05:50:22.237Z</time>
      </trkpt>
      <trkpt lat="45.2054" lon="5.59271">
        <ele>1507</ele>
        <time>2015-08-12T05:50:24.273Z</time>
      </trkpt>
      <trkpt lat="45.20773" lon="5.5914">
        <ele>1653</ele>
        <time>2015-08-12T05:51:28.400Z</time>
      </trkpt>
      <trkpt lat="45.21225" lon="5.59108">
        <ele>1667</ele>
        <time>2015-08-12T05:54:31.267Z</time>
      </trkpt>
      <trkpt lat="45.21318" lon="5.59048">
        <ele>1682</ele>
        <time>2015-08-12T05:55:15.239Z</time>
      </trkpt>
      <trkpt lat="45.2134" lon="5.59018">
        <ele>1680</ele>
        <time>2015-08-12T05:55:22.237Z</time>
      </trkpt>
      <trkpt lat="45.21352" lon="5.59021">
        <ele>1681</ele>
        <time>2015-08-12T05:55:26.247Z</time>
      </trkpt>
      <trkpt lat="45.21355" lon="5.59031">
        <ele>1682</ele>
        <time>2015-08-12T05:55:32.369Z</time>
      </trkpt>
      <trkpt lat="45.21607" lon="5.59194">
        <ele>1646</ele>
        <time>2015-08-12T06:01:26.291Z</time>
      </trkpt>
      <trkpt lat="45.2162" lon="5.5924">
        <ele>1653</ele>
        <time>2015-08-12T06:01:45.250Z</time>
      </trkpt>
      <trkpt lat="45.21631" lon="5.59244">
        <ele>1657</ele>
        <time>2015-08-12T06:01:53.236Z</time>
      </trkpt>
      <trkpt lat="45.2166" lon="5.59265">
        <ele>1658</ele>
        <time>2015-08-12T06:02:06.233Z</time>
      </trkpt>
      <trkpt lat="45.21654" lon="5.59306">
        <ele>1653</ele>
        <time>2015-08-12T06:02:19.253Z</time>
      </trkpt>
      <trkpt lat="45.21654" lon="5.59345">
        <ele>1649</ele>
        <time>2015-08-12T06:02:25.271Z</time>
      </trkpt>
      <trkpt lat="45.2165" lon="5.59354">
        <ele>1648</ele>
        <time>2015-08-12T06:02:26.233Z</time>
      </trkpt>
      <trkpt lat="45.21656" lon="5.59379">
        <ele>1646</ele>
        <time>2015-08-12T06:02:30.319Z</time>
      </trkpt>
      <trkpt lat="45.2167" lon="5.59389">
        <ele>1645</ele>
        <time>2015-08-12T06:02:33.282Z</time>
      </trkpt>
      <trkpt lat="45.21693" lon="5.59381">
        <ele>1645</ele>
        <time>2015-08-12T06:02:35.234Z</time>
      </trkpt>
      <trkpt lat="45.21698" lon="5.59391">
        <ele>1644</ele>
        <time>2015-08-12T06:02:36.285Z</time>
      </trkpt>
      <trkpt lat="45.21734" lon="5.594">
        <ele>1644</ele>
        <time>2015-08-12T06:02:40.244Z</time>
      </trkpt>
      <trkpt lat="45.21758" lon="5.59386">
        <ele>1645</ele>
        <time>2015-08-12T06:02:53.473Z</time>
      </trkpt>
      <trkpt lat="45.21789" lon="5.59348">
        <ele>1647</ele>
        <time>2015-08-12T06:03:14.233Z</time>
      </trkpt>
      <trkpt lat="45.21798" lon="5.59334">
        <ele>1646</ele>
        <time>2015-08-12T06:03:23.291Z</time>
      </trkpt>
      <trkpt lat="45.21798" lon="5.59324">
        <ele>1650</ele>
        <time>2015-08-12T06:03:34.433Z</time>
      </trkpt>
      <trkpt lat="45.21844" lon="5.59259">
        <ele>1643</ele>
        <time>2015-08-12T06:04:06.279Z</time>
      </trkpt>
      <trkpt lat="45.21866" lon="5.59265">
        <ele>1644</ele>
        <time>2015-08-12T06:04:13.299Z</time>
      </trkpt>
      <trkpt lat="45.21881" lon="5.59256">
        <ele>1643</ele>
        <time>2015-08-12T06:04:18.239Z</time>
      </trkpt>
      <trkpt lat="45.21906" lon="5.59262">
        <ele>1645</ele>
        <time>2015-08-12T06:04:23.231Z</time>
      </trkpt>
      <trkpt lat="45.2194" lon="5.59256">
        <ele>1645</ele>
        <time>2015-08-12T06:04:32.697Z</time>
      </trkpt>
      <trkpt lat="45.21983" lon="5.59263">
        <ele>1649</ele>
        <time>2015-08-12T06:04:42.305Z</time>
      </trkpt>
      <trkpt lat="45.2202" lon="5.59256">
        <ele>1660</ele>
        <time>2015-08-12T06:04:53.238Z</time>
      </trkpt>
      <trkpt lat="45.22027" lon="5.59248">
        <ele>1658</ele>
        <time>2015-08-12T06:04:55.308Z</time>
      </trkpt>
      <trkpt lat="45.22041" lon="5.59245">
        <ele>1661</ele>
        <time>2015-08-12T06:04:58.232Z</time>
      </trkpt>
      <trkpt lat="45.22055" lon="5.59244">
        <ele>1659</ele>
        <time>2015-08-12T06:05:01.235Z</time>
      </trkpt>
      <trkpt lat="45.22066" lon="5.59251">
        <ele>1658</ele>
        <time>2015-08-12T06:05:04.230Z</time>
      </trkpt>
      <trkpt lat="45.22095" lon="5.5924">
        <ele>1655</ele>
        <time>2015-08-12T06:05:10.233Z</time>
      </trkpt>
      <trkpt lat="45.22101" lon="5.59245">
        <ele>1657</ele>
        <time>2015-08-12T06:05:12.320Z</time>
      </trkpt>
      <trkpt lat="45.2212" lon="5.59241">
        <ele>1656</ele>
        <time>2015-08-12T06:05:17.281Z</time>
      </trkpt>
      <trkpt lat="45.22147" lon="5.5923">
        <ele>1660</ele>
        <time>2015-08-12T06:05:24.303Z</time>
      </trkpt>
      <trkpt lat="45.22163" lon="5.59232">
        <ele>1659</ele>
        <time>2015-08-12T06:05:27.236Z</time>
      </trkpt>
      <trkpt lat="45.22179" lon="5.59243">
        <ele>1660</ele>
        <time>2015-08-12T06:05:32.298Z</time>
      </trkpt>
      <trkpt lat="45.22193" lon="5.59261">
        <ele>1662</ele>
        <time>2015-08-12T06:05:43.377Z</time>
      </trkpt>
      <trkpt lat="45.22213" lon="5.59269">
        <ele>1659</ele>
        <time>2015-08-12T06:05:53.309Z</time>
      </trkpt>
      <trkpt lat="45.22221" lon="5.59283">
        <ele>1659</ele>
        <time>2015-08-12T06:06:01.229Z</time>
      </trkpt>
      <trkpt lat="45.22231" lon="5.5928">
        <ele>1654</ele>
        <time>2015-08-12T06:06:09.242Z</time>
      </trkpt>
      <trkpt lat="45.22254" lon="5.59312">
        <ele>1660</ele>
        <time>2015-08-12T06:06:29.454Z</time>
      </trkpt>
      <trkpt lat="45.22273" lon="5.59347">
        <ele>1661</ele>
        <time>2015-08-12T06:06:47.228Z</time>
      </trkpt>
      <trkpt lat="45.22278" lon="5.59345">
        <ele>1661</ele>
        <time>2015-08-12T06:06:49.375Z</time>
      </trkpt>
      <trkpt lat="45.22283" lon="5.59365">
        <ele>1662</ele>
        <time>2015-08-12T06:06:50.238Z</time>
      </trkpt>
      <trkpt lat="45.22299" lon="5.59358">
        <ele>1659</ele>
        <time>2015-08-12T06:06:52.235Z</time>
      </trkpt>
      <trkpt lat="45.22301" lon="5.5937">
        <ele>1656</ele>
        <time>2015-08-12T06:06:55.314Z</time>
      </trkpt>
      <trkpt lat="45.22319" lon="5.59364">
        <ele>1661</ele>
        <time>2015-08-12T06:06:59.227Z</time>
      </trkpt>
      <trkpt lat="45.22331" lon="5.59378">
        <ele>1664</ele>
        <time>2015-08-12T06:07:02.366Z</time>
      </trkpt>
      <trkpt lat="45.22338" lon="5.59374">
        <ele>1663</ele>
        <time>2015-08-12T06:07:03.621Z</time>
      </trkpt>
      <trkpt lat="45.22346" lon="5.59378">
        <ele>1668</ele>
        <time>2015-08-12T06:07:05.239Z</time>
      </trkpt>
      <trkpt lat="45.22354" lon="5.5937">
        <ele>1666</ele>
        <time>2015-08-12T06:07:06.235Z</time>
      </trkpt>
      <trkpt lat="45.22362" lon="5.59373">
        <ele>1665</ele>
        <time>2015-08-12T06:07:08.588Z</time>
      </trkpt>
      <trkpt lat="45.22391" lon="5.59358">
        <ele>1665</ele>
        <time>2015-08-12T06:07:13.350Z</time>
      </trkpt>
      <trkpt lat="45.22396" lon="5.59359">
        <ele>1664</ele>
        <time>2015-08-12T06:07:14.226Z</time>
      </trkpt>
      <trkpt lat="45.22403" lon="5.59373">
        <ele>1665</ele>
        <time>2015-08-12T06:07:16.237Z</time>
      </trkpt>
      <trkpt lat="45.22414" lon="5.5937">
        <ele>1667</ele>
        <time>2015-08-12T06:07:18.256Z</time>
      </trkpt>
      <trkpt lat="45.22424" lon="5.59377">
        <ele>1667</ele>
        <time>2015-08-12T06:07:20.282Z</time>
      </trkpt>
      <trkpt lat="45.22453" lon="5.59383">
        <ele>1668</ele>
        <time>2015-08-12T06:07:27.391Z</time>
      </trkpt>
      <trkpt lat="45.2246" lon="5.59377">
        <ele>1668</ele>
        <time>2015-08-12T06:07:28.230Z</time>
      </trkpt>
      <trkpt lat="45.22483" lon="5.5938">
        <ele>1671</ele>
        <time>2015-08-12T06:07:32.309Z</time>
      </trkpt>
      <trkpt lat="45.22499" lon="5.59372">
        <ele>1674</ele>
        <time>2015-08-12T06:07:35.227Z</time>
      </trkpt>
      <trkpt lat="45.22537" lon="5.594">
        <ele>1669</ele>
        <time>2015-08-12T06:07:43.330Z</time>
      </trkpt>
      <trkpt lat="45.22575" lon="5.5939">
        <ele>1669</ele>
        <time>2015-08-12T06:07:49.317Z</time>
      </trkpt>
      <trkpt lat="45.22581" lon="5.59397">
        <ele>1667</ele>
        <time>2015-08-12T06:07:50.236Z</time>
      </trkpt>
      <trkpt lat="45.226" lon="5.59392">
        <ele>1664</ele>
        <time>2015-08-12T06:07:53.323Z</time>
      </trkpt>
      <trkpt lat="45.22606" lon="5.59397">
        <ele>1664</ele>
        <time>2015-08-12T06:07:54.266Z</time>
      </trkpt>
      <trkpt lat="45.2264" lon="5.59378">
        <ele>1661</ele>
        <time>2015-08-12T06:08:00.236Z</time>
      </trkpt>
      <trkpt lat="45.22657" lon="5.59385">
        <ele>1660</ele>
        <time>2015-08-12T06:08:03.333Z</time>
      </trkpt>
      <trkpt lat="45.22677" lon="5.59377">
        <ele>1660</ele>
        <time>2015-08-12T06:08:08.464Z</time>
      </trkpt>
      <trkpt lat="45.22687" lon="5.59391">
        <ele>1663</ele>
        <time>2015-08-12T06:08:10.227Z</time>
      </trkpt>
      <trkpt lat="45.22695" lon="5.59392">
        <ele>1661</ele>
        <time>2015-08-12T06:08:11.587Z</time>
      </trkpt>
      <trkpt lat="45.22707" lon="5.59402">
        <ele>1660</ele>
        <time>2015-08-12T06:08:13.298Z</time>
      </trkpt>
      <trkpt lat="45.22732" lon="5.59399">
        <ele>1661</ele>
        <time>2015-08-12T06:08:18.237Z</time>
      </trkpt>
      <trkpt lat="45.22753" lon="5.59383">
        <ele>1665</ele>
        <time>2015-08-12T06:08:25.237Z</time>
      </trkpt>
      <trkpt lat="45.2278" lon="5.59384">
        <ele>1663</ele>
        <time>2015-08-12T06:08:32.281Z</time>
      </trkpt>
      <trkpt lat="45.22792" lon="5.59372">
        <ele>1661</ele>
        <time>2015-08-12T06:08:35.245Z</time>
      </trkpt>
      <trkpt lat="45.22826" lon="5.5937">
        <ele>1662</ele>
        <time>2015-08-12T06:08:44.230Z</time>
      </trkpt>
      <trkpt lat="45.22838" lon="5.59378">
        <ele>1660</ele>
        <time>2015-08-12T06:08:47.230Z</time>
      </trkpt>
      <trkpt lat="45.22877" lon="5.59388">
        <ele>1653</ele>
        <time>2015-08-12T06:08:58.234Z</time>
      </trkpt>
      <trkpt lat="45.22881" lon="5.59382">
        <ele>1655</ele>
        <time>2015-08-12T06:08:59.303Z</time>
      </trkpt>
      <trkpt lat="45.22899" lon="5.59379">
        <ele>1657</ele>
        <time>2015-08-12T06:09:05.273Z</time>
      </trkpt>
      <trkpt lat="45.22903" lon="5.59373">
        <ele>1659</ele>
        <time>2015-08-12T06:09:06.256Z</time>
      </trkpt>
      <trkpt lat="45.22909" lon="5.59377">
        <ele>1663</ele>
        <time>2015-08-12T06:09:08.283Z</time>
      </trkpt>
      <trkpt lat="45.22935" lon="5.59365">
        <ele>1667</ele>
        <time>2015-08-12T06:09:15.292Z</time>
      </trkpt>
      <trkpt lat="45.22996" lon="5.59359">
        <ele>1664</ele>
        <time>2015-08-12T06:09:25.311Z</time>
      </trkpt>
      <trkpt lat="45.23015" lon="5.59383">
        <ele>1659</ele>
        <time>2015-08-12T06:09:30.238Z</time>
      </trkpt>
      <trkpt lat="45.23023" lon="5.5938">
        <ele>1660</ele>
        <time>2015-08-12T06:09:32.307Z</time>
      </trkpt>
      <trkpt lat="45.23055" lon="5.59404">
        <ele>1661</ele>
        <time>2015-08-12T06:09:39.301Z</time>
      </trkpt>
      <trkpt lat="45.23085" lon="5.59409">
        <ele>1662</ele>
        <time>2015-08-12T06:09:44.237Z</time>
      </trkpt>
      <trkpt lat="45.23112" lon="5.59424">
        <ele>1659</ele>
        <time>2015-08-12T06:09:50.364Z</time>
      </trkpt>
      <trkpt lat="45.23136" lon="5.59478">
        <ele>1652</ele>
        <time>2015-08-12T06:10:04.399Z</time>
      </trkpt>
      <trkpt lat="45.23145" lon="5.59511">
        <ele>1656</ele>
        <time>2015-08-12T06:10:11.272Z</time>
      </trkpt>
      <trkpt lat="45.23154" lon="5.5952">
        <ele>1656</ele>
        <time>2015-08-12T06:10:14.273Z</time>
      </trkpt>
      <trkpt lat="45.23183" lon="5.59532">
        <ele>1654</ele>
        <time>2015-08-12T06:10:24.365Z</time>
      </trkpt>
      <trkpt lat="45.23192" lon="5.59544">
        <ele>1654</ele>
        <time>2015-08-12T06:10:27.390Z</time>
      </trkpt>
      <trkpt lat="45.23205" lon="5.59551">
        <ele>1651</ele>
        <time>2015-08-12T06:10:30.257Z</time>
      </trkpt>
      <trkpt lat="45.23246" lon="5.59612">
        <ele>1654</ele>
        <time>2015-08-12T06:10:53.265Z</time>
      </trkpt>
      <trkpt lat="45.23271" lon="5.59628">
        <ele>1656</ele>
        <time>2015-08-12T06:11:06.313Z</time>
      </trkpt>
      <trkpt lat="45.23288" lon="5.59648">
        <ele>1658</ele>
        <time>2015-08-12T06:11:17.245Z</time>
      </trkpt>
      <trkpt lat="45.2331" lon="5.59688">
        <ele>1668</ele>
        <time>2015-08-12T06:11:44.241Z</time>
      </trkpt>
      <trkpt lat="45.23316" lon="5.59714">
        <ele>1667</ele>
        <time>2015-08-12T06:11:48.299Z</time>
      </trkpt>
      <trkpt lat="45.23322" lon="5.59716">
        <ele>1668</ele>
        <time>2015-08-12T06:11:49.251Z</time>
      </trkpt>
      <trkpt lat="45.23322" lon="5.59732">
        <ele>1659</ele>
        <time>2015-08-12T06:11:56.230Z</time>
      </trkpt>
      <trkpt lat="45.23356" lon="5.59762">
        <ele>1659</ele>
        <time>2015-08-12T06:12:16.230Z</time>
      </trkpt>
      <trkpt lat="45.23355" lon="5.59773">
        <ele>1662</ele>
        <time>2015-08-12T06:12:20.340Z</time>
      </trkpt>
      <trkpt lat="45.23372" lon="5.59803">
        <ele>1656</ele>
        <time>2015-08-12T06:12:34.379Z</time>
      </trkpt>
      <trkpt lat="45.23376" lon="5.59817">
        <ele>1658</ele>
        <time>2015-08-12T06:12:38.408Z</time>
      </trkpt>
      <trkpt lat="45.23391" lon="5.59835">
        <ele>1658</ele>
        <time>2015-08-12T06:13:03.305Z</time>
      </trkpt>
      <trkpt lat="45.23401" lon="5.59834">
        <ele>1660</ele>
        <time>2015-08-12T06:13:07.293Z</time>
      </trkpt>
      <trkpt lat="45.2342" lon="5.59846">
        <ele>1668</ele>
        <time>2015-08-12T06:13:25.348Z</time>
      </trkpt>
      <trkpt lat="45.23421" lon="5.59842">
        <ele>1668</ele>
        <time>2015-08-12T06:13:26.268Z</time>
      </trkpt>
      <trkpt lat="45.2344" lon="5.59838">
        <ele>1677</ele>
        <time>2015-08-12T06:13:41.359Z</time>
      </trkpt>
      <trkpt lat="45.23457" lon="5.5984">
        <ele>1678</ele>
        <time>2015-08-12T06:14:25.365Z</time>
      </trkpt>
      <trkpt lat="45.23458" lon="5.59833">
        <ele>1678</ele>
        <time>2015-08-12T06:14:26.269Z</time>
      </trkpt>
      <trkpt lat="45.23477" lon="5.59838">
        <ele>1685</ele>
        <time>2015-08-12T06:14:46.231Z</time>
      </trkpt>
      <trkpt lat="45.23487" lon="5.59831">
        <ele>1691</ele>
        <time>2015-08-12T06:14:57.232Z</time>
      </trkpt>
      <trkpt lat="45.23496" lon="5.59807">
        <ele>1691</ele>
        <time>2015-08-12T06:17:31.257Z</time>
      </trkpt>
      <trkpt lat="45.23516" lon="5.59807">
        <ele>1704</ele>
        <time>2015-08-12T06:17:40.278Z</time>
      </trkpt>
      <trkpt lat="45.23514" lon="5.59787">
        <ele>1703</ele>
        <time>2015-08-12T06:18:44.269Z</time>
      </trkpt>
      <trkpt lat="45.23523" lon="5.59751">
        <ele>1697</ele>
        <time>2015-08-12T06:19:15.336Z</time>
      </trkpt>
      <trkpt lat="45.23539" lon="5.5973">
        <ele>1701</ele>
        <time>2015-08-12T06:19:43.244Z</time>
      </trkpt>
      <trkpt lat="45.23549" lon="5.59706">
        <ele>1702</ele>
        <time>2015-08-12T06:20:01.258Z</time>
      </trkpt>
      <trkpt lat="45.2354" lon="5.59701">
        <ele>1697</ele>
        <time>2015-08-12T06:23:24.268Z</time>
      </trkpt>
      <trkpt lat="45.23536" lon="5.59679">
        <ele>1699</ele>
        <time>2015-08-12T06:23:29.232Z</time>
      </trkpt>
      <trkpt lat="45.23556" lon="5.59646">
        <ele>1700</ele>
        <time>2015-08-12T06:23:45.230Z</time>
      </trkpt>
      <trkpt lat="45.23555" lon="5.59631">
        <ele>1692</ele>
        <time>2015-08-12T06:23:48.230Z</time>
      </trkpt>
      <trkpt lat="45.23562" lon="5.59605">
        <ele>1687</ele>
        <time>2015-08-12T06:23:57.235Z</time>
      </trkpt>
      <trkpt lat="45.23558" lon="5.59575">
        <ele>1430</ele>
        <time>2015-08-12T06:24:13.227Z</time>
      </trkpt>
      <trkpt lat="45.23547" lon="5.59556">
        <ele>1560</ele>
        <time>2015-08-12T06:24:22.280Z</time>
      </trkpt>
      <trkpt lat="45.2354" lon="5.59516">
        <ele>1571</ele>
        <time>2015-08-12T06:24:29.231Z</time>
      </trkpt>
      <trkpt lat="45.23533" lon="5.59514">
        <ele>1578</ele>
        <time>2015-08-12T06:24:31.287Z</time>
      </trkpt>
      <trkpt lat="45.23518" lon="5.59488">
        <ele>1609</ele>
        <time>2015-08-12T06:24:38.240Z</time>
      </trkpt>
      <trkpt lat="45.2353" lon="5.59492">
        <ele>1636</ele>
        <time>2015-08-12T06:24:47.331Z</time>
      </trkpt>
      <trkpt lat="45.23546" lon="5.59484">
        <ele>1645</ele>
        <time>2015-08-12T06:24:51.346Z</time>
      </trkpt>
      <trkpt lat="45.23561" lon="5.59456">
        <ele>1644</ele>
        <time>2015-08-12T06:24:56.238Z</time>
      </trkpt>
      <trkpt lat="45.2352" lon="5.59381">
        <ele>1632</ele>
        <time>2015-08-12T06:25:07.327Z</time>
      </trkpt>
      <trkpt lat="45.23505" lon="5.59366">
        <ele>1632</ele>
        <time>2015-08-12T06:25:10.294Z</time>
      </trkpt>
      <trkpt lat="45.23504" lon="5.59372">
        <ele>1633</ele>
        <time>2015-08-12T06:25:19.429Z</time>
      </trkpt>
      <trkpt lat="45.23509" lon="5.59361">
        <ele>1630</ele>
        <time>2015-08-12T06:25:26.281Z</time>
      </trkpt>
      <trkpt lat="45.23531" lon="5.59349">
        <ele>1626</ele>
        <time>2015-08-12T06:26:48.416Z</time>
      </trkpt>
      <trkpt lat="45.23544" lon="5.59333">
        <ele>1623</ele>
        <time>2015-08-12T06:26:56.244Z</time>
      </trkpt>
      <trkpt lat="45.23553" lon="5.59332">
        <ele>1620</ele>
        <time>2015-08-12T06:26:59.368Z</time>
      </trkpt>
      <trkpt lat="45.23572" lon="5.59312">
        <ele>1624</ele>
        <time>2015-08-12T06:27:32.360Z</time>
      </trkpt>
      <trkpt lat="45.23575" lon="5.59316">
        <ele>1624</ele>
        <time>2015-08-12T06:28:13.319Z</time>
      </trkpt>
      <trkpt lat="45.23584" lon="5.59311">
        <ele>1625</ele>
        <time>2015-08-12T06:28:24.228Z</time>
      </trkpt>
      <trkpt lat="45.236" lon="5.59256">
        <ele>1623</ele>
        <time>2015-08-12T06:28:46.271Z</time>
      </trkpt>
      <trkpt lat="45.23621" lon="5.5923">
        <ele>1624</ele>
        <time>2015-08-12T06:28:55.439Z</time>
      </trkpt>
      <trkpt lat="45.23642" lon="5.59176">
        <ele>1609</ele>
        <time>2015-08-12T06:29:20.293Z</time>
      </trkpt>
      <trkpt lat="45.23654" lon="5.59171">
        <ele>1609</ele>
        <time>2015-08-12T06:29:28.379Z</time>
      </trkpt>
      <trkpt lat="45.23677" lon="5.59114">
        <ele>1604</ele>
        <time>2015-08-12T06:30:58.431Z</time>
      </trkpt>
      <trkpt lat="45.23694" lon="5.59094">
        <ele>1604</ele>
        <time>2015-08-12T06:31:12.262Z</time>
      </trkpt>
      <trkpt lat="45.23696" lon="5.59072">
        <ele>1602</ele>
        <time>2015-08-12T06:31:35.320Z</time>
      </trkpt>
      <trkpt lat="45.23701" lon="5.59069">
        <ele>1601</ele>
        <time>2015-08-12T06:31:36.227Z</time>
      </trkpt>
      <trkpt lat="45.23698" lon="5.59057">
        <ele>1595</ele>
        <time>2015-08-12T06:31:55.353Z</time>
      </trkpt>
      <trkpt lat="45.23703" lon="5.59047">
        <ele>1593</ele>
        <time>2015-08-12T06:32:08.251Z</time>
      </trkpt>
      <trkpt lat="45.23723" lon="5.59023">
        <ele>1588</ele>
        <time>2015-08-12T06:32:40.379Z</time>
      </trkpt>
      <trkpt lat="45.23736" lon="5.58995">
        <ele>1597</ele>
        <time>2015-08-12T06:33:23.262Z</time>
      </trkpt>
      <trkpt lat="45.23749" lon="5.58992">
        <ele>1602</ele>
        <time>2015-08-12T06:33:33.242Z</time>
      </trkpt>
      <trkpt lat="45.23768" lon="5.58952">
        <ele>1596</ele>
        <time>2015-08-12T06:34:17.337Z</time>
      </trkpt>
      <trkpt lat="45.23781" lon="5.58952">
        <ele>1596</ele>
        <time>2015-08-12T06:34:21.275Z</time>
      </trkpt>
      <trkpt lat="45.23787" lon="5.5894">
        <ele>1593</ele>
        <time>2015-08-12T06:34:25.243Z</time>
      </trkpt>
      <trkpt lat="45.23794" lon="5.58941">
        <ele>1601</ele>
        <time>2015-08-12T06:34:34.260Z</time>
      </trkpt>
      <trkpt lat="45.23805" lon="5.58905">
        <ele>1598</ele>
        <time>2015-08-12T06:35:39.393Z</time>
      </trkpt>
      <trkpt lat="45.23816" lon="5.58897">
        <ele>1594</ele>
        <time>2015-08-12T06:35:44.350Z</time>
      </trkpt>
      <trkpt lat="45.23826" lon="5.58869">
        <ele>1598</ele>
        <time>2015-08-12T06:37:13.384Z</time>
      </trkpt>
      <trkpt lat="45.23854" lon="5.58835">
        <ele>1609</ele>
        <time>2015-08-12T06:37:21.244Z</time>
      </trkpt>
      <trkpt lat="45.2386" lon="5.5882">
        <ele>1597</ele>
        <time>2015-08-12T06:37:29.268Z</time>
      </trkpt>
      <trkpt lat="45.23876" lon="5.58819">
        <ele>1605</ele>
        <time>2015-08-12T06:38:27.370Z</time>
      </trkpt>
      <trkpt lat="45.2389" lon="5.58799">
        <ele>1596</ele>
        <time>2015-08-12T06:38:39.257Z</time>
      </trkpt>
      <trkpt lat="45.23902" lon="5.588">
        <ele>1603</ele>
        <time>2015-08-12T06:38:51.368Z</time>
      </trkpt>
      <trkpt lat="45.23951" lon="5.58775">
        <ele>1613</ele>
        <time>2015-08-12T06:40:29.225Z</time>
      </trkpt>
      <trkpt lat="45.2399" lon="5.58731">
        <ele>1609</ele>
        <time>2015-08-12T06:41:14.266Z</time>
      </trkpt>
      <trkpt lat="45.23987" lon="5.58723">
        <ele>1600</ele>
        <time>2015-08-12T06:44:12.369Z</time>
      </trkpt>
      <trkpt lat="45.23991" lon="5.58716">
        <ele>1600</ele>
        <time>2015-08-12T06:44:13.272Z</time>
      </trkpt>
      <trkpt lat="45.23988" lon="5.58705">
        <ele>1597</ele>
        <time>2015-08-12T06:44:17.336Z</time>
      </trkpt>
      <trkpt lat="45.23959" lon="5.58714">
        <ele>1590</ele>
        <time>2015-08-12T06:44:25.368Z</time>
      </trkpt>
      <trkpt lat="45.23946" lon="5.58715">
        <ele>1591</ele>
        <time>2015-08-12T06:44:28.393Z</time>
      </trkpt>
      <trkpt lat="45.23944" lon="5.58711">
        <ele>1591</ele>
        <time>2015-08-12T06:44:29.296Z</time>
      </trkpt>
      <trkpt lat="45.23954" lon="5.58677">
        <ele>1589</ele>
        <time>2015-08-12T06:44:38.363Z</time>
      </trkpt>
      <trkpt lat="45.23974" lon="5.58659">
        <ele>1586</ele>
        <time>2015-08-12T06:44:42.369Z</time>
      </trkpt>
      <trkpt lat="45.23991" lon="5.58627">
        <ele>1586</ele>
        <time>2015-08-12T06:44:47.364Z</time>
      </trkpt>
      <trkpt lat="45.23991" lon="5.5862">
        <ele>1584</ele>
        <time>2015-08-12T06:44:48.252Z</time>
      </trkpt>
      <trkpt lat="45.24004" lon="5.58594">
        <ele>1579</ele>
        <time>2015-08-12T06:44:54.256Z</time>
      </trkpt>
      <trkpt lat="45.24006" lon="5.58581">
        <ele>1577</ele>
        <time>2015-08-12T06:44:57.272Z</time>
      </trkpt>
      <trkpt lat="45.23996" lon="5.58577">
        <ele>1568</ele>
        <time>2015-08-12T06:45:04.257Z</time>
      </trkpt>
      <trkpt lat="45.24002" lon="5.58548">
        <ele>1569</ele>
        <time>2015-08-12T06:45:16.337Z</time>
      </trkpt>
      <trkpt lat="45.23999" lon="5.58534">
        <ele>1563</ele>
        <time>2015-08-12T06:45:25.233Z</time>
      </trkpt>
      <trkpt lat="45.24005" lon="5.58524">
        <ele>1561</ele>
        <time>2015-08-12T06:45:32.227Z</time>
      </trkpt>
      <trkpt lat="45.23997" lon="5.58515">
        <ele>1561</ele>
        <time>2015-08-12T06:45:38.250Z</time>
      </trkpt>
      <trkpt lat="45.23987" lon="5.58519">
        <ele>1555</ele>
        <time>2015-08-12T06:45:43.307Z</time>
      </trkpt>
      <trkpt lat="45.23981" lon="5.5851">
        <ele>1549</ele>
        <time>2015-08-12T06:45:51.375Z</time>
      </trkpt>
      <trkpt lat="45.23984" lon="5.58497">
        <ele>1547</ele>
        <time>2015-08-12T06:46:06.277Z</time>
      </trkpt>
      <trkpt lat="45.23999" lon="5.58475">
        <ele>1546</ele>
        <time>2015-08-12T06:46:17.274Z</time>
      </trkpt>
      <trkpt lat="45.2399" lon="5.58471">
        <ele>1529</ele>
        <time>2015-08-12T06:46:34.277Z</time>
      </trkpt>
      <trkpt lat="45.2399" lon="5.5846">
        <ele>1528</ele>
        <time>2015-08-12T06:46:40.419Z</time>
      </trkpt>
      <trkpt lat="45.24007" lon="5.5844">
        <ele>1525</ele>
        <time>2015-08-12T06:46:54.303Z</time>
      </trkpt>
      <trkpt lat="45.24002" lon="5.58442">
        <ele>1523</ele>
        <time>2015-08-12T06:46:59.276Z</time>
      </trkpt>
      <trkpt lat="45.23987" lon="5.58432">
        <ele>1515</ele>
        <time>2015-08-12T06:47:03.236Z</time>
      </trkpt>
      <trkpt lat="45.23987" lon="5.58421">
        <ele>1508</ele>
        <time>2015-08-12T06:47:15.405Z</time>
      </trkpt>
      <trkpt lat="45.2398" lon="5.58416">
        <ele>1506</ele>
        <time>2015-08-12T06:47:21.342Z</time>
      </trkpt>
      <trkpt lat="45.23976" lon="5.58404">
        <ele>1494</ele>
        <time>2015-08-12T06:47:37.359Z</time>
      </trkpt>
      <trkpt lat="45.23974" lon="5.58389">
        <ele>1494</ele>
        <time>2015-08-12T06:47:44.277Z</time>
      </trkpt>
      <trkpt lat="45.23984" lon="5.58351">
        <ele>1488</ele>
        <time>2015-08-12T06:47:54.303Z</time>
      </trkpt>
      <trkpt lat="45.23979" lon="5.58333">
        <ele>1487</ele>
        <time>2015-08-12T06:47:58.228Z</time>
      </trkpt>
      <trkpt lat="45.23971" lon="5.58336">
        <ele>1485</ele>
        <time>2015-08-12T06:48:04.273Z</time>
      </trkpt>
      <trkpt lat="45.23978" lon="5.58313">
        <ele>1474</ele>
        <time>2015-08-12T06:48:16.340Z</time>
      </trkpt>
      <trkpt lat="45.23947" lon="5.58322">
        <ele>1466</ele>
        <time>2015-08-12T06:48:25.372Z</time>
      </trkpt>
      <trkpt lat="45.23898" lon="5.58349">
        <ele>1455</ele>
        <time>2015-08-12T06:48:39.387Z</time>
      </trkpt>
      <trkpt lat="45.23874" lon="5.58348">
        <ele>1455</ele>
        <time>2015-08-12T06:48:44.248Z</time>
      </trkpt>
      <trkpt lat="45.23876" lon="5.58337">
        <ele>1455</ele>
        <time>2015-08-12T06:48:46.352Z</time>
      </trkpt>
      <trkpt lat="45.23867" lon="5.58326">
        <ele>1459</ele>
        <time>2015-08-12T06:48:51.242Z</time>
      </trkpt>
      <trkpt lat="45.23873" lon="5.58284">
        <ele>1462</ele>
        <time>2015-08-12T06:49:01.257Z</time>
      </trkpt>
      <trkpt lat="45.23889" lon="5.58244">
        <ele>1456</ele>
        <time>2015-08-12T06:49:12.248Z</time>
      </trkpt>
      <trkpt lat="45.2389" lon="5.58227">
        <ele>1454</ele>
        <time>2015-08-12T06:49:15.254Z</time>
      </trkpt>
      <trkpt lat="45.23897" lon="5.58214">
        <ele>1453</ele>
        <time>2015-08-12T06:49:18.247Z</time>
      </trkpt>
      <trkpt lat="45.23906" lon="5.58182">
        <ele>1452</ele>
        <time>2015-08-12T06:49:22.247Z</time>
      </trkpt>
      <trkpt lat="45.23896" lon="5.58171">
        <ele>1451</ele>
        <time>2015-08-12T06:49:23.265Z</time>
      </trkpt>
      <trkpt lat="45.23896" lon="5.58156">
        <ele>1450</ele>
        <time>2015-08-12T06:49:24.263Z</time>
      </trkpt>
      <trkpt lat="45.23883" lon="5.58143">
        <ele>1447</ele>
        <time>2015-08-12T06:49:26.370Z</time>
      </trkpt>
      <trkpt lat="45.23881" lon="5.58125">
        <ele>1446</ele>
        <time>2015-08-12T06:49:28.371Z</time>
      </trkpt>
      <trkpt lat="45.23858" lon="5.58101">
        <ele>1449</ele>
        <time>2015-08-12T06:49:55.378Z</time>
      </trkpt>
      <trkpt lat="45.23831" lon="5.58103">
        <ele>1447</ele>
        <time>2015-08-12T06:49:59.245Z</time>
      </trkpt>
      <trkpt lat="45.23809" lon="5.58115">
        <ele>1445</ele>
        <time>2015-08-12T06:50:00.228Z</time>
      </trkpt>
      <trkpt lat="45.23799" lon="5.58113">
        <ele>1446</ele>
        <time>2015-08-12T06:50:01.228Z</time>
      </trkpt>
      <trkpt lat="45.23781" lon="5.58128">
        <ele>1450</ele>
        <time>2015-08-12T06:50:03.263Z</time>
      </trkpt>
      <trkpt lat="45.23774" lon="5.58165">
        <ele>1447</ele>
        <time>2015-08-12T06:50:07.242Z</time>
      </trkpt>
      <trkpt lat="45.23783" lon="5.5819">
        <ele>1447</ele>
        <time>2015-08-12T06:50:10.270Z</time>
      </trkpt>
      <trkpt lat="45.23787" lon="5.58188">
        <ele>1444</ele>
        <time>2015-08-12T06:50:11.350Z</time>
      </trkpt>
      <trkpt lat="45.2381" lon="5.58235">
        <ele>1443</ele>
        <time>2015-08-12T06:50:18.375Z</time>
      </trkpt>
      <trkpt lat="45.23809" lon="5.58249">
        <ele>1442</ele>
        <time>2015-08-12T06:50:19.264Z</time>
      </trkpt>
      <trkpt lat="45.2382" lon="5.58269">
        <ele>1441</ele>
        <time>2015-08-12T06:50:22.350Z</time>
      </trkpt>
      <trkpt lat="45.23819" lon="5.58275">
        <ele>1440</ele>
        <time>2015-08-12T06:50:23.272Z</time>
      </trkpt>
      <trkpt lat="45.23828" lon="5.58288">
        <ele>1439</ele>
        <time>2015-08-12T06:50:25.303Z</time>
      </trkpt>
      <trkpt lat="45.24066" lon="5.58979">
        <ele>1582</ele>
        <time>2015-08-12T07:11:26.234Z</time>
      </trkpt>
      <trkpt lat="45.24083" lon="5.58971">
        <ele>1571</ele>
        <time>2015-08-12T07:11:30.284Z</time>
      </trkpt>
      <trkpt lat="45.24088" lon="5.58974">
        <ele>1567</ele>
        <time>2015-08-12T07:11:31.232Z</time>
      </trkpt>
      <trkpt lat="45.24091" lon="5.58957">
        <ele>1539</ele>
        <time>2015-08-12T07:11:35.221Z</time>
      </trkpt>
      <trkpt lat="45.24104" lon="5.58937">
        <ele>1513</ele>
        <time>2015-08-12T07:11:41.268Z</time>
      </trkpt>
      <trkpt lat="45.24171" lon="5.58914">
        <ele>1474</ele>
        <time>2015-08-12T07:11:54.315Z</time>
      </trkpt>
      <trkpt lat="45.24202" lon="5.58898">
        <ele>1463</ele>
        <time>2015-08-12T07:11:58.332Z</time>
      </trkpt>
      <trkpt lat="45.24233" lon="5.58838">
        <ele>1439</ele>
        <time>2015-08-12T07:12:03.263Z</time>
      </trkpt>
      <trkpt lat="45.24288" lon="5.5882">
        <ele>1433</ele>
        <time>2015-08-12T07:12:09.315Z</time>
      </trkpt>
      <trkpt lat="45.24319" lon="5.58799">
        <ele>1428</ele>
        <time>2015-08-12T07:12:13.244Z</time>
      </trkpt>
      <trkpt lat="45.24356" lon="5.58759">
        <ele>1424</ele>
        <time>2015-08-12T07:12:18.260Z</time>
      </trkpt>
      <trkpt lat="45.24375" lon="5.58747">
        <ele>1423</ele>
        <time>2015-08-12T07:12:20.259Z</time>
      </trkpt>
      <trkpt lat="45.24394" lon="5.58746">
        <ele>1422</ele>
        <time>2015-08-12T07:12:22.251Z</time>
      </trkpt>
      <trkpt lat="45.24403" lon="5.58732">
        <ele>1419</ele>
        <time>2015-08-12T07:12:23.246Z</time>
      </trkpt>
      <trkpt lat="45.24411" lon="5.58732">
        <ele>1417</ele>
        <time>2015-08-12T07:12:24.305Z</time>
      </trkpt>
      <trkpt lat="45.24421" lon="5.58721">
        <ele>1417</ele>
        <time>2015-08-12T07:12:25.265Z</time>
      </trkpt>
      <trkpt lat="45.24446" lon="5.58714">
        <ele>1415</ele>
        <time>2015-08-12T07:12:28.315Z</time>
      </trkpt>
      <trkpt lat="45.24524" lon="5.58768">
        <ele>1415</ele>
        <time>2015-08-12T07:12:38.237Z</time>
      </trkpt>
      <trkpt lat="45.24588" lon="5.58784">
        <ele>1415</ele>
        <time>2015-08-12T07:12:50.233Z</time>
      </trkpt>
      <trkpt lat="45.24641" lon="5.58764">
        <ele>1415</ele>
        <time>2015-08-12T07:12:57.319Z</time>
      </trkpt>
      <trkpt lat="45.2465" lon="5.58752">
        <ele>1416</ele>
        <time>2015-08-12T07:12:59.373Z</time>
      </trkpt>
      <trkpt lat="45.24652" lon="5.58737">
        <ele>1409</ele>
        <time>2015-08-12T07:13:00.254Z</time>
      </trkpt>
      <trkpt lat="45.24661" lon="5.58724">
        <ele>1407</ele>
        <time>2015-08-12T07:13:04.258Z</time>
      </trkpt>
      <trkpt lat="45.24668" lon="5.58694">
        <ele>1403</ele>
        <time>2015-08-12T07:13:11.254Z</time>
      </trkpt>
      <trkpt lat="45.24675" lon="5.58688">
        <ele>1402</ele>
        <time>2015-08-12T07:13:14.382Z</time>
      </trkpt>
      <trkpt lat="45.24708" lon="5.58698">
        <ele>1399</ele>
        <time>2015-08-12T07:13:27.506Z</time>
      </trkpt>
      <trkpt lat="45.24722" lon="5.58711">
        <ele>1400</ele>
        <time>2015-08-12T07:13:32.261Z</time>
      </trkpt>
      <trkpt lat="45.24722" lon="5.58719">
        <ele>1397</ele>
        <time>2015-08-12T07:13:34.326Z</time>
      </trkpt>
      <trkpt lat="45.24734" lon="5.58736">
        <ele>1392</ele>
        <time>2015-08-12T07:13:39.227Z</time>
      </trkpt>
      <trkpt lat="45.24737" lon="5.5875">
        <ele>1391</ele>
        <time>2015-08-12T07:13:42.257Z</time>
      </trkpt>
      <trkpt lat="45.24728" lon="5.58785">
        <ele>1387</ele>
        <time>2015-08-12T07:13:55.336Z</time>
      </trkpt>
      <trkpt lat="45.24738" lon="5.58802">
        <ele>1388</ele>
        <time>2015-08-12T07:13:59.245Z</time>
      </trkpt>
      <trkpt lat="45.24733" lon="5.58814">
        <ele>1380</ele>
        <time>2015-08-12T07:14:01.265Z</time>
      </trkpt>
      <trkpt lat="45.24735" lon="5.58827">
        <ele>1378</ele>
        <time>2015-08-12T07:14:04.302Z</time>
      </trkpt>
      <trkpt lat="45.24715" lon="5.58853">
        <ele>1370</ele>
        <time>2015-08-12T07:14:14.309Z</time>
      </trkpt>
      <trkpt lat="45.24726" lon="5.58866">
        <ele>1369</ele>
        <time>2015-08-12T07:14:15.254Z</time>
      </trkpt>
      <trkpt lat="45.24723" lon="5.58865">
        <ele>1369</ele>
        <time>2015-08-12T07:14:16.343Z</time>
      </trkpt>
      <trkpt lat="45.24712" lon="5.58898">
        <ele>1366</ele>
        <time>2015-08-12T07:14:19.243Z</time>
      </trkpt>
      <trkpt lat="45.24715" lon="5.58915">
        <ele>1359</ele>
        <time>2015-08-12T07:14:22.241Z</time>
      </trkpt>
      <trkpt lat="45.24701" lon="5.58934">
        <ele>1355</ele>
        <time>2015-08-12T07:14:27.296Z</time>
      </trkpt>
      <trkpt lat="45.24659" lon="5.58955">
        <ele>1348</ele>
        <time>2015-08-12T07:14:37.288Z</time>
      </trkpt>
      <trkpt lat="45.24585" lon="5.59018">
        <ele>1339</ele>
        <time>2015-08-12T07:15:22.270Z</time>
      </trkpt>
      <trkpt lat="45.24487" lon="5.59049">
        <ele>1323</ele>
        <time>2015-08-12T07:16:00.856Z</time>
      </trkpt>
      <trkpt lat="45.24442" lon="5.59104">
        <ele>1309</ele>
        <time>2015-08-12T07:16:36.235Z</time>
      </trkpt>
      <trkpt lat="45.24391" lon="5.59132">
        <ele>1297</ele>
        <time>2015-08-12T07:17:05.223Z</time>
      </trkpt>
      <trkpt lat="45.24378" lon="5.59134">
        <ele>1286</ele>
        <time>2015-08-12T07:17:33.264Z</time>
      </trkpt>
      <trkpt lat="45.24362" lon="5.59152">
        <ele>1252</ele>
        <time>2015-08-12T07:17:58.309Z</time>
      </trkpt>
      <trkpt lat="45.24357" lon="5.59166">
        <ele>1248</ele>
        <time>2015-08-12T07:18:09.344Z</time>
      </trkpt>
      <trkpt lat="45.2436" lon="5.59173">
        <ele>1249</ele>
        <time>2015-08-12T07:18:10.229Z</time>
      </trkpt>
      <trkpt lat="45.24355" lon="5.59182">
        <ele>1247</ele>
        <time>2015-08-12T07:18:14.294Z</time>
      </trkpt>
      <trkpt lat="45.24343" lon="5.5919">
        <ele>1237</ele>
        <time>2015-08-12T07:18:18.250Z</time>
      </trkpt>
      <trkpt lat="45.24343" lon="5.59204">
        <ele>1242</ele>
        <time>2015-08-12T07:18:24.290Z</time>
      </trkpt>
      <trkpt lat="45.24326" lon="5.59214">
        <ele>1229</ele>
        <time>2015-08-12T07:18:35.319Z</time>
      </trkpt>
      <trkpt lat="45.24317" lon="5.59226">
        <ele>1229</ele>
        <time>2015-08-12T07:18:41.219Z</time>
      </trkpt>
      <trkpt lat="45.24318" lon="5.59235">
        <ele>1228</ele>
        <time>2015-08-12T07:18:44.393Z</time>
      </trkpt>
      <trkpt lat="45.24335" lon="5.59258">
        <ele>1228</ele>
        <time>2015-08-12T07:18:51.321Z</time>
      </trkpt>
      <trkpt lat="45.24204" lon="5.59328">
        <ele>1226</ele>
        <time>2015-08-12T07:19:55.267Z</time>
      </trkpt>
      <trkpt lat="45.24197" lon="5.59337">
        <ele>1227</ele>
        <time>2015-08-12T07:20:04.219Z</time>
      </trkpt>
      <trkpt lat="45.24174" lon="5.59338">
        <ele>1229</ele>
        <time>2015-08-12T07:20:10.242Z</time>
      </trkpt>
      <trkpt lat="45.24163" lon="5.59347">
        <ele>1228</ele>
        <time>2015-08-12T07:20:13.236Z</time>
      </trkpt>
      <trkpt lat="45.24052" lon="5.59374">
        <ele>1229</ele>
        <time>2015-08-12T07:20:47.233Z</time>
      </trkpt>
      <trkpt lat="45.24052" lon="5.5938">
        <ele>1229</ele>
        <time>2015-08-12T07:20:51.263Z</time>
      </trkpt>
      <trkpt lat="45.24031" lon="5.5938">
        <ele>1227</ele>
        <time>2015-08-12T07:20:59.222Z</time>
      </trkpt>
      <trkpt lat="45.23968" lon="5.59488">
        <ele>1231</ele>
        <time>2015-08-12T07:21:22.236Z</time>
      </trkpt>
      <trkpt lat="45.23954" lon="5.59505">
        <ele>1230</ele>
        <time>2015-08-12T07:21:27.303Z</time>
      </trkpt>
      <trkpt lat="45.23929" lon="5.59522">
        <ele>1227</ele>
        <time>2015-08-12T07:21:33.340Z</time>
      </trkpt>
      <trkpt lat="45.23917" lon="5.59557">
        <ele>1218</ele>
        <time>2015-08-12T07:21:42.226Z</time>
      </trkpt>
      <trkpt lat="45.23909" lon="5.5956">
        <ele>1208</ele>
        <time>2015-08-12T07:21:46.257Z</time>
      </trkpt>
      <trkpt lat="45.23902" lon="5.59583">
        <ele>1205</ele>
        <time>2015-08-12T07:21:57.312Z</time>
      </trkpt>
      <trkpt lat="45.2388" lon="5.59607">
        <ele>1193</ele>
        <time>2015-08-12T07:22:19.263Z</time>
      </trkpt>
      <trkpt lat="45.23881" lon="5.59626">
        <ele>1193</ele>
        <time>2015-08-12T07:22:27.215Z</time>
      </trkpt>
      <trkpt lat="45.23891" lon="5.59628">
        <ele>1195</ele>
        <time>2015-08-12T07:22:33.224Z</time>
      </trkpt>
      <trkpt lat="45.2389" lon="5.59641">
        <ele>1196</ele>
        <time>2015-08-12T07:22:35.228Z</time>
      </trkpt>
      <trkpt lat="45.23876" lon="5.59652">
        <ele>1196</ele>
        <time>2015-08-12T07:22:48.251Z</time>
      </trkpt>
      <trkpt lat="45.23886" lon="5.59662">
        <ele>1195</ele>
        <time>2015-08-12T07:22:51.237Z</time>
      </trkpt>
      <trkpt lat="45.23887" lon="5.59673">
        <ele>1198</ele>
        <time>2015-08-12T07:22:57.335Z</time>
      </trkpt>
      <trkpt lat="45.23881" lon="5.59685">
        <ele>1208</ele>
        <time>2015-08-12T07:23:01.359Z</time>
      </trkpt>
      <trkpt lat="45.23875" lon="5.59687">
        <ele>1210</ele>
        <time>2015-08-12T07:23:16.271Z</time>
      </trkpt>
      <trkpt lat="45.23872" lon="5.59703">
        <ele>1213</ele>
        <time>2015-08-12T07:23:34.286Z</time>
      </trkpt>
      <trkpt lat="45.2388" lon="5.59707">
        <ele>1212</ele>
        <time>2015-08-12T07:23:35.229Z</time>
      </trkpt>
      <trkpt lat="45.2388" lon="5.59723">
        <ele>1213</ele>
        <time>2015-08-12T07:23:37.239Z</time>
      </trkpt>
      <trkpt lat="45.23891" lon="5.59732">
        <ele>1211</ele>
        <time>2015-08-12T07:23:39.265Z</time>
      </trkpt>
      <trkpt lat="45.23915" lon="5.5974">
        <ele>1211</ele>
        <time>2015-08-12T07:23:41.260Z</time>
      </trkpt>
      <trkpt lat="45.23925" lon="5.59738">
        <ele>1211</ele>
        <time>2015-08-12T07:23:44.242Z</time>
      </trkpt>
      <trkpt lat="45.23933" lon="5.59746">
        <ele>1207</ele>
        <time>2015-08-12T07:23:47.257Z</time>
      </trkpt>
      <trkpt lat="45.23919" lon="5.59798">
        <ele>1205</ele>
        <time>2015-08-12T07:24:08.314Z</time>
      </trkpt>
      <trkpt lat="45.23878" lon="5.59838">
        <ele>1199</ele>
        <time>2015-08-12T07:24:23.240Z</time>
      </trkpt>
      <trkpt lat="45.23878" lon="5.5987">
        <ele>1203</ele>
        <time>2015-08-12T07:24:29.237Z</time>
      </trkpt>
      <trkpt lat="45.23873" lon="5.59887">
        <ele>1205</ele>
        <time>2015-08-12T07:24:35.276Z</time>
      </trkpt>
      <trkpt lat="45.23885" lon="5.59902">
        <ele>1205</ele>
        <time>2015-08-12T07:24:42.248Z</time>
      </trkpt>
      <trkpt lat="45.23883" lon="5.59929">
        <ele>1200</ele>
        <time>2015-08-12T07:24:53.318Z</time>
      </trkpt>
      <trkpt lat="45.23902" lon="5.59943">
        <ele>1210</ele>
        <time>2015-08-12T07:25:02.330Z</time>
      </trkpt>
      <trkpt lat="45.23909" lon="5.59967">
        <ele>1206</ele>
        <time>2015-08-12T07:25:10.339Z</time>
      </trkpt>
      <trkpt lat="45.23922" lon="5.59979">
        <ele>1208</ele>
        <time>2015-08-12T07:25:16.226Z</time>
      </trkpt>
      <trkpt lat="45.23929" lon="5.59994">
        <ele>1206</ele>
        <time>2015-08-12T07:25:19.223Z</time>
      </trkpt>
      <trkpt lat="45.2392" lon="5.60003">
        <ele>1207</ele>
        <time>2015-08-12T07:25:24.216Z</time>
      </trkpt>
      <trkpt lat="45.2393" lon="5.60008">
        <ele>1208</ele>
        <time>2015-08-12T07:25:26.224Z</time>
      </trkpt>
      <trkpt lat="45.23929" lon="5.6002">
        <ele>1211</ele>
        <time>2015-08-12T07:25:30.271Z</time>
      </trkpt>
      <trkpt lat="45.23916" lon="5.60047">
        <ele>1215</ele>
        <time>2015-08-12T07:25:39.245Z</time>
      </trkpt>
      <trkpt lat="45.23893" lon="5.60069">
        <ele>1212</ele>
        <time>2015-08-12T07:25:48.300Z</time>
      </trkpt>
      <trkpt lat="45.23895" lon="5.60099">
        <ele>1215</ele>
        <time>2015-08-12T07:25:52.262Z</time>
      </trkpt>
      <trkpt lat="45.23888" lon="5.60106">
        <ele>1212</ele>
        <time>2015-08-12T07:25:54.352Z</time>
      </trkpt>
      <trkpt lat="45.23889" lon="5.60113">
        <ele>1213</ele>
        <time>2015-08-12T07:25:55.221Z</time>
      </trkpt>
      <trkpt lat="45.23883" lon="5.60128">
        <ele>1216</ele>
        <time>2015-08-12T07:25:58.250Z</time>
      </trkpt>
      <trkpt lat="45.23873" lon="5.60133">
        <ele>1216</ele>
        <time>2015-08-12T07:26:00.266Z</time>
      </trkpt>
      <trkpt lat="45.23853" lon="5.60165">
        <ele>1208</ele>
        <time>2015-08-12T07:26:07.321Z</time>
      </trkpt>
      <trkpt lat="45.23851" lon="5.60175">
        <ele>1205</ele>
        <time>2015-08-12T07:26:08.235Z</time>
      </trkpt>
      <trkpt lat="45.23854" lon="5.60203">
        <ele>1195</ele>
        <time>2015-08-12T07:26:10.345Z</time>
      </trkpt>
      <trkpt lat="45.23845" lon="5.60216">
        <ele>1190</ele>
        <time>2015-08-12T07:26:12.309Z</time>
      </trkpt>
      <trkpt lat="45.2385" lon="5.60233">
        <ele>1182</ele>
        <time>2015-08-12T07:26:14.321Z</time>
      </trkpt>
      <trkpt lat="45.23853" lon="5.60274">
        <ele>1187</ele>
        <time>2015-08-12T07:26:18.240Z</time>
      </trkpt>
      <trkpt lat="45.23838" lon="5.60296">
        <ele>1195</ele>
        <time>2015-08-12T07:26:25.263Z</time>
      </trkpt>
      <trkpt lat="45.23848" lon="5.60331">
        <ele>1198</ele>
        <time>2015-08-12T07:26:31.321Z</time>
      </trkpt>
      <trkpt lat="45.2384" lon="5.60341">
        <ele>1347</ele>
        <time>2015-08-12T07:26:34.283Z</time>
      </trkpt>
      <trkpt lat="45.23795" lon="5.60338">
        <ele>1250</ele>
        <time>2015-08-12T07:27:04.999Z</time>
      </trkpt>
      <trkpt lat="45.23784" lon="5.6054">
        <ele>1177</ele>
        <time>2015-08-12T07:27:36.331Z</time>
      </trkpt>
      <trkpt lat="45.23764" lon="5.60554">
        <ele>1171</ele>
        <time>2015-08-12T07:27:45.269Z</time>
      </trkpt>
      <trkpt lat="45.23752" lon="5.60555">
        <ele>1149</ele>
        <time>2015-08-12T07:27:46.262Z</time>
      </trkpt>
      <trkpt lat="45.23731" lon="5.60574">
        <ele>1128</ele>
        <time>2015-08-12T07:27:51.236Z</time>
      </trkpt>
      <trkpt lat="45.2373" lon="5.60592">
        <ele>1271</ele>
        <time>2015-08-12T07:27:55.248Z</time>
      </trkpt>
      <trkpt lat="45.23707" lon="5.60618">
        <ele>1174</ele>
        <time>2015-08-12T07:28:04.242Z</time>
      </trkpt>
      <trkpt lat="45.23701" lon="5.60619">
        <ele>1186</ele>
        <time>2015-08-12T07:28:06.316Z</time>
      </trkpt>
      <trkpt lat="45.2369" lon="5.60651">
        <ele>1180</ele>
        <time>2015-08-12T07:28:11.330Z</time>
      </trkpt>
      <trkpt lat="45.23676" lon="5.60669">
        <ele>1186</ele>
        <time>2015-08-12T07:28:15.292Z</time>
      </trkpt>
      <trkpt lat="45.23671" lon="5.60689">
        <ele>1157</ele>
        <time>2015-08-12T07:28:19.262Z</time>
      </trkpt>
      <trkpt lat="45.23667" lon="5.60692">
        <ele>1155</ele>
        <time>2015-08-12T07:28:20.227Z</time>
      </trkpt>
      <trkpt lat="45.23693" lon="5.60757">
        <ele>1171</ele>
        <time>2015-08-12T07:28:29.258Z</time>
      </trkpt>
      <trkpt lat="45.23689" lon="5.60766">
        <ele>1140</ele>
        <time>2015-08-12T07:28:37.308Z</time>
      </trkpt>
      <trkpt lat="45.23682" lon="5.6076">
        <ele>1131</ele>
        <time>2015-08-12T07:28:38.242Z</time>
      </trkpt>
      <trkpt lat="45.23674" lon="5.60764">
        <ele>1117</ele>
        <time>2015-08-12T07:28:43.299Z</time>
      </trkpt>
      <trkpt lat="45.23687" lon="5.60782">
        <ele>1112</ele>
        <time>2015-08-12T07:28:44.261Z</time>
      </trkpt>
      <trkpt lat="45.23708" lon="5.60786">
        <ele>1101</ele>
        <time>2015-08-12T07:28:50.317Z</time>
      </trkpt>
      <trkpt lat="45.23719" lon="5.60794">
        <ele>1098</ele>
        <time>2015-08-12T07:28:53.337Z</time>
      </trkpt>
      <trkpt lat="45.23739" lon="5.60816">
        <ele>1100</ele>
        <time>2015-08-12T07:29:00.319Z</time>
      </trkpt>
      <trkpt lat="45.2374" lon="5.60832">
        <ele>1097</ele>
        <time>2015-08-12T07:29:02.314Z</time>
      </trkpt>
      <trkpt lat="45.2377" lon="5.60841">
        <ele>1087</ele>
        <time>2015-08-12T07:29:07.366Z</time>
      </trkpt>
      <trkpt lat="45.23792" lon="5.60872">
        <ele>1082</ele>
        <time>2015-08-12T07:29:10.257Z</time>
      </trkpt>
      <trkpt lat="45.23807" lon="5.60902">
        <ele>1081</ele>
        <time>2015-08-12T07:29:18.254Z</time>
      </trkpt>
      <trkpt lat="45.23824" lon="5.60914">
        <ele>1082</ele>
        <time>2015-08-12T07:29:19.262Z</time>
      </trkpt>
      <trkpt lat="45.23823" lon="5.60929">
        <ele>1079</ele>
        <time>2015-08-12T07:29:20.251Z</time>
      </trkpt>
      <trkpt lat="45.23827" lon="5.60935">
        <ele>1077</ele>
        <time>2015-08-12T07:29:22.312Z</time>
      </trkpt>
      <trkpt lat="45.23872" lon="5.60952">
        <ele>1058</ele>
        <time>2015-08-12T07:29:31.260Z</time>
      </trkpt>
      <trkpt lat="45.23901" lon="5.60989">
        <ele>1023</ele>
        <time>2015-08-12T07:29:47.324Z</time>
      </trkpt>
      <trkpt lat="45.23919" lon="5.6099">
        <ele>1018</ele>
        <time>2015-08-12T07:29:50.260Z</time>
      </trkpt>
      <trkpt lat="45.23928" lon="5.60996">
        <ele>1014</ele>
        <time>2015-08-12T07:29:52.249Z</time>
      </trkpt>
      <trkpt lat="45.23933" lon="5.61009">
        <ele>1011</ele>
        <time>2015-08-12T07:29:58.267Z</time>
      </trkpt>
      <trkpt lat="45.23927" lon="5.61055">
        <ele>995</ele>
        <time>2015-08-12T07:30:10.237Z</time>
      </trkpt>
      <trkpt lat="45.23929" lon="5.61064">
        <ele>989</ele>
        <time>2015-08-12T07:30:13.300Z</time>
      </trkpt>
      <trkpt lat="45.23963" lon="5.61079">
        <ele>978</ele>
        <time>2015-08-12T07:30:21.258Z</time>
      </trkpt>
      <trkpt lat="45.23968" lon="5.6109">
        <ele>978</ele>
        <time>2015-08-12T07:30:24.239Z</time>
      </trkpt>
      <trkpt lat="45.23969" lon="5.61123">
        <ele>970</ele>
        <time>2015-08-12T07:30:33.245Z</time>
      </trkpt>
      <trkpt lat="45.23962" lon="5.61152">
        <ele>966</ele>
        <time>2015-08-12T07:30:39.263Z</time>
      </trkpt>
      <trkpt lat="45.23948" lon="5.61176">
        <ele>954</ele>
        <time>2015-08-12T07:30:50.244Z</time>
      </trkpt>
      <trkpt lat="45.23954" lon="5.61193">
        <ele>951</ele>
        <time>2015-08-12T07:30:55.255Z</time>
      </trkpt>
      <trkpt lat="45.23943" lon="5.61214">
        <ele>949</ele>
        <time>2015-08-12T07:31:06.315Z</time>
      </trkpt>
      <trkpt lat="45.23946" lon="5.61253">
        <ele>949</ele>
        <time>2015-08-12T07:31:12.242Z</time>
      </trkpt>
      <trkpt lat="45.23919" lon="5.61298">
        <ele>950</ele>
        <time>2015-08-12T07:31:23.255Z</time>
      </trkpt>
      <trkpt lat="45.23889" lon="5.61303">
        <ele>949</ele>
        <time>2015-08-12T07:31:32.236Z</time>
      </trkpt>
      <trkpt lat="45.23818" lon="5.61361">
        <ele>949</ele>
        <time>2015-08-12T07:31:57.341Z</time>
      </trkpt>
      <trkpt lat="45.23795" lon="5.6136">
        <ele>941</ele>
        <time>2015-08-12T07:32:06.224Z</time>
      </trkpt>
      <trkpt lat="45.23771" lon="5.61341">
        <ele>904</ele>
        <time>2015-08-12T07:32:24.289Z</time>
      </trkpt>
      <trkpt lat="45.23752" lon="5.61337">
        <ele>905</ele>
        <time>2015-08-12T07:32:33.313Z</time>
      </trkpt>
      <trkpt lat="45.23716" lon="5.61359">
        <ele>893</ele>
        <time>2015-08-12T07:32:56.256Z</time>
      </trkpt>
      <trkpt lat="45.23703" lon="5.61375">
        <ele>892</ele>
        <time>2015-08-12T07:33:04.294Z</time>
      </trkpt>
      <trkpt lat="45.23692" lon="5.61379">
        <ele>896</ele>
        <time>2015-08-12T07:33:07.351Z</time>
      </trkpt>
      <trkpt lat="45.23669" lon="5.61425">
        <ele>896</ele>
        <time>2015-08-12T07:33:21.281Z</time>
      </trkpt>
      <trkpt lat="45.23646" lon="5.6145">
        <ele>893</ele>
        <time>2015-08-12T07:33:31.311Z</time>
      </trkpt>
      <trkpt lat="45.23635" lon="5.61474">
        <ele>892</ele>
        <time>2015-08-12T07:33:37.328Z</time>
      </trkpt>
      <trkpt lat="45.23627" lon="5.61476">
        <ele>890</ele>
        <time>2015-08-12T07:33:42.296Z</time>
      </trkpt>
      <trkpt lat="45.23625" lon="5.61484">
        <ele>890</ele>
        <time>2015-08-12T07:33:43.340Z</time>
      </trkpt>
      <trkpt lat="45.23594" lon="5.61488">
        <ele>890</ele>
        <time>2015-08-12T07:33:49.264Z</time>
      </trkpt>
      <trkpt lat="45.23547" lon="5.61504">
        <ele>890</ele>
        <time>2015-08-12T07:34:00.269Z</time>
      </trkpt>
      <trkpt lat="45.23526" lon="5.6153">
        <ele>866</ele>
        <time>2015-08-12T07:34:06.257Z</time>
      </trkpt>
      <trkpt lat="45.23507" lon="5.61539">
        <ele>856</ele>
        <time>2015-08-12T07:34:12.248Z</time>
      </trkpt>
      <trkpt lat="45.23499" lon="5.6155">
        <ele>853</ele>
        <time>2015-08-12T07:34:18.246Z</time>
      </trkpt>
      <trkpt lat="45.23481" lon="5.61553">
        <ele>854</ele>
        <time>2015-08-12T07:34:25.316Z</time>
      </trkpt>
      <trkpt lat="45.23474" lon="5.61563">
        <ele>854</ele>
        <time>2015-08-12T07:34:27.263Z</time>
      </trkpt>
      <trkpt lat="45.23452" lon="5.6158">
        <ele>854</ele>
        <time>2015-08-12T07:34:33.241Z</time>
      </trkpt>
      <trkpt lat="45.23455" lon="5.6159">
        <ele>852</ele>
        <time>2015-08-12T07:34:35.327Z</time>
      </trkpt>
      <trkpt lat="45.23449" lon="5.616">
        <ele>851</ele>
        <time>2015-08-12T07:34:38.364Z</time>
      </trkpt>
      <trkpt lat="45.23435" lon="5.61605">
        <ele>849</ele>
        <time>2015-08-12T07:34:41.317Z</time>
      </trkpt>
      <trkpt lat="45.23389" lon="5.61656">
        <ele>845</ele>
        <time>2015-08-12T07:34:54.223Z</time>
      </trkpt>
      <trkpt lat="45.2339" lon="5.61662">
        <ele>845</ele>
        <time>2015-08-12T07:35:00.631Z</time>
      </trkpt>
      <trkpt lat="45.23366" lon="5.61698">
        <ele>838</ele>
        <time>2015-08-12T07:35:11.326Z</time>
      </trkpt>
      <trkpt lat="45.23348" lon="5.61712">
        <ele>837</ele>
        <time>2015-08-12T07:35:13.278Z</time>
      </trkpt>
      <trkpt lat="45.23338" lon="5.61731">
        <ele>827</ele>
        <time>2015-08-12T07:35:15.257Z</time>
      </trkpt>
      <trkpt lat="45.23328" lon="5.6174">
        <ele>824</ele>
        <time>2015-08-12T07:35:17.253Z</time>
      </trkpt>
      <trkpt lat="45.23327" lon="5.61765">
        <ele>819</ele>
        <time>2015-08-12T07:35:22.279Z</time>
      </trkpt>
      <trkpt lat="45.23332" lon="5.61786">
        <ele>819</ele>
        <time>2015-08-12T07:35:27.222Z</time>
      </trkpt>
      <trkpt lat="45.23343" lon="5.61799">
        <ele>817</ele>
        <time>2015-08-12T07:35:28.224Z</time>
      </trkpt>
      <trkpt lat="45.23344" lon="5.61811">
        <ele>816</ele>
        <time>2015-08-12T07:35:30.282Z</time>
      </trkpt>
      <trkpt lat="45.23359" lon="5.61824">
        <ele>815</ele>
        <time>2015-08-12T07:35:31.227Z</time>
      </trkpt>
      <trkpt lat="45.23376" lon="5.61872">
        <ele>809</ele>
        <time>2015-08-12T07:35:37.228Z</time>
      </trkpt>
      <trkpt lat="45.23393" lon="5.61898">
        <ele>805</ele>
        <time>2015-08-12T07:35:41.226Z</time>
      </trkpt>
      <trkpt lat="45.23406" lon="5.61905">
        <ele>804</ele>
        <time>2015-08-12T07:35:43.254Z</time>
      </trkpt>
      <trkpt lat="45.23425" lon="5.61902">
        <ele>801</ele>
        <time>2015-08-12T07:35:45.297Z</time>
      </trkpt>
      <trkpt lat="45.2347" lon="5.61911">
        <ele>797</ele>
        <time>2015-08-12T07:35:50.301Z</time>
      </trkpt>
      <trkpt lat="45.23501" lon="5.61926">
        <ele>793</ele>
        <time>2015-08-12T07:35:55.234Z</time>
      </trkpt>
      <trkpt lat="45.23514" lon="5.61918">
        <ele>782</ele>
        <time>2015-08-12T07:36:06.345Z</time>
      </trkpt>
      <trkpt lat="45.23574" lon="5.61936">
        <ele>767</ele>
        <time>2015-08-12T07:36:28.312Z</time>
      </trkpt>
      <trkpt lat="45.23618" lon="5.61979">
        <ele>767</ele>
        <time>2015-08-12T07:36:37.306Z</time>
      </trkpt>
      <trkpt lat="45.23644" lon="5.6204">
        <ele>738</ele>
        <time>2015-08-12T07:37:09.263Z</time>
      </trkpt>
      <trkpt lat="45.23652" lon="5.62042">
        <ele>736</ele>
        <time>2015-08-12T07:37:11.266Z</time>
      </trkpt>
      <trkpt lat="45.23651" lon="5.62154">
        <ele>705</ele>
        <time>2015-08-12T07:37:57.274Z</time>
      </trkpt>
      <trkpt lat="45.23626" lon="5.62185">
        <ele>700</ele>
        <time>2015-08-12T07:38:07.222Z</time>
      </trkpt>
      <trkpt lat="45.23615" lon="5.62189">
        <ele>699</ele>
        <time>2015-08-12T07:38:12.229Z</time>
      </trkpt>
      <trkpt lat="45.23587" lon="5.62157">
        <ele>690</ele>
        <time>2015-08-12T07:38:15.237Z</time>
      </trkpt>
      <trkpt lat="45.23569" lon="5.62154">
        <ele>690</ele>
        <time>2015-08-12T07:38:18.342Z</time>
      </trkpt>
      <trkpt lat="45.23559" lon="5.62167">
        <ele>682</ele>
        <time>2015-08-12T07:38:22.334Z</time>
      </trkpt>
      <trkpt lat="45.23555" lon="5.6216">
        <ele>680</ele>
        <time>2015-08-12T07:38:23.252Z</time>
      </trkpt>
      <trkpt lat="45.23549" lon="5.62161">
        <ele>678</ele>
        <time>2015-08-12T07:38:26.298Z</time>
      </trkpt>
      <trkpt lat="45.23516" lon="5.62187">
        <ele>671</ele>
        <time>2015-08-12T07:38:50.240Z</time>
      </trkpt>
      <trkpt lat="45.23511" lon="5.62195">
        <ele>669</ele>
        <time>2015-08-12T07:38:54.270Z</time>
      </trkpt>
      <trkpt lat="45.23497" lon="5.62197">
        <ele>670</ele>
        <time>2015-08-12T07:38:57.470Z</time>
      </trkpt>
      <trkpt lat="45.23494" lon="5.62202">
        <ele>669</ele>
        <time>2015-08-12T07:38:59.329Z</time>
      </trkpt>
      <trkpt lat="45.23474" lon="5.62274">
        <ele>667</ele>
        <time>2015-08-12T07:39:06.252Z</time>
      </trkpt>
      <trkpt lat="45.23467" lon="5.62279">
        <ele>649</ele>
        <time>2015-08-12T07:39:09.320Z</time>
      </trkpt>
      <trkpt lat="45.23464" lon="5.62291">
        <ele>648</ele>
        <time>2015-08-12T07:39:10.292Z</time>
      </trkpt>
      <trkpt lat="45.23469" lon="5.62304">
        <ele>635</ele>
        <time>2015-08-12T07:39:32.288Z</time>
      </trkpt>
      <trkpt lat="45.2346" lon="5.6234">
        <ele>617</ele>
        <time>2015-08-12T07:39:40.321Z</time>
      </trkpt>
      <trkpt lat="45.23464" lon="5.62348">
        <ele>617</ele>
        <time>2015-08-12T07:39:41.256Z</time>
      </trkpt>
      <trkpt lat="45.23462" lon="5.62352">
        <ele>619</ele>
        <time>2015-08-12T07:39:43.332Z</time>
      </trkpt>
      <trkpt lat="45.23471" lon="5.62361">
        <ele>621</ele>
        <time>2015-08-12T07:39:44.265Z</time>
      </trkpt>
      <trkpt lat="45.23467" lon="5.62366">
        <ele>622</ele>
        <time>2015-08-12T07:39:50.260Z</time>
      </trkpt>
      <trkpt lat="45.23501" lon="5.62364">
        <ele>620</ele>
        <time>2015-08-12T07:40:02.246Z</time>
      </trkpt>
      <trkpt lat="45.23527" lon="5.62349">
        <ele>617</ele>
        <time>2015-08-12T07:40:06.319Z</time>
      </trkpt>
      <trkpt lat="45.23547" lon="5.62349">
        <ele>616</ele>
        <time>2015-08-12T07:40:09.251Z</time>
      </trkpt>
      <trkpt lat="45.2359" lon="5.62371">
        <ele>612</ele>
        <time>2015-08-12T07:40:14.252Z</time>
      </trkpt>
      <trkpt lat="45.23592" lon="5.62378">
        <ele>613</ele>
        <time>2015-08-12T07:40:15.289Z</time>
      </trkpt>
      <trkpt lat="45.23648" lon="5.62383">
        <ele>610</ele>
        <time>2015-08-12T07:40:21.309Z</time>
      </trkpt>
      <trkpt lat="45.23711" lon="5.6236">
        <ele>597</ele>
        <time>2015-08-12T07:40:29.302Z</time>
      </trkpt>
      <trkpt lat="45.23721" lon="5.62338">
        <ele>588</ele>
        <time>2015-08-12T07:40:33.285Z</time>
      </trkpt>
      <trkpt lat="45.23729" lon="5.62343">
        <ele>587</ele>
        <time>2015-08-12T07:40:40.300Z</time>
      </trkpt>
      <trkpt lat="45.23738" lon="5.6234">
        <ele>584</ele>
        <time>2015-08-12T07:40:46.318Z</time>
      </trkpt>
      <trkpt lat="45.23749" lon="5.62345">
        <ele>579</ele>
        <time>2015-08-12T07:40:55.267Z</time>
      </trkpt>
      <trkpt lat="45.23761" lon="5.6237">
        <ele>573</ele>
        <time>2015-08-12T07:41:01.258Z</time>
      </trkpt>
      <trkpt lat="45.23783" lon="5.6239">
        <ele>573</ele>
        <time>2015-08-12T07:41:06.327Z</time>
      </trkpt>
      <trkpt lat="45.23797" lon="5.62426">
        <ele>570</ele>
        <time>2015-08-12T07:41:11.330Z</time>
      </trkpt>
      <trkpt lat="45.23795" lon="5.62438">
        <ele>570</ele>
        <time>2015-08-12T07:41:12.252Z</time>
      </trkpt>
      <trkpt lat="45.23799" lon="5.62451">
        <ele>569</ele>
        <time>2015-08-12T07:41:14.236Z</time>
      </trkpt>
      <trkpt lat="45.23795" lon="5.62466">
        <ele>568</ele>
        <time>2015-08-12T07:41:16.247Z</time>
      </trkpt>
      <trkpt lat="45.23784" lon="5.62471">
        <ele>569</ele>
        <time>2015-08-12T07:41:18.234Z</time>
      </trkpt>
      <trkpt lat="45.23777" lon="5.62483">
        <ele>566</ele>
        <time>2015-08-12T07:41:20.247Z</time>
      </trkpt>
      <trkpt lat="45.23782" lon="5.62494">
        <ele>567</ele>
        <time>2015-08-12T07:41:21.231Z</time>
      </trkpt>
      <trkpt lat="45.23781" lon="5.62531">
        <ele>567</ele>
        <time>2015-08-12T07:41:26.228Z</time>
      </trkpt>
      <trkpt lat="45.23778" lon="5.62527">
        <ele>564</ele>
        <time>2015-08-12T07:41:27.272Z</time>
      </trkpt>
      <trkpt lat="45.23787" lon="5.62563">
        <ele>559</ele>
        <time>2015-08-12T07:41:30.235Z</time>
      </trkpt>
      <trkpt lat="45.23786" lon="5.62578">
        <ele>559</ele>
        <time>2015-08-12T07:41:33.224Z</time>
      </trkpt>
      <trkpt lat="45.23746" lon="5.62614">
        <ele>550</ele>
        <time>2015-08-12T07:41:41.236Z</time>
      </trkpt>
      <trkpt lat="45.23738" lon="5.62626">
        <ele>550</ele>
        <time>2015-08-12T07:41:43.247Z</time>
      </trkpt>
      <trkpt lat="45.23725" lon="5.62632">
        <ele>540</ele>
        <time>2015-08-12T07:41:57.231Z</time>
      </trkpt>
      <trkpt lat="45.23703" lon="5.62611">
        <ele>541</ele>
        <time>2015-08-12T07:42:06.221Z</time>
      </trkpt>
      <trkpt lat="45.23697" lon="5.62599">
        <ele>537</ele>
        <time>2015-08-12T07:42:09.240Z</time>
      </trkpt>
      <trkpt lat="45.23681" lon="5.62596">
        <ele>534</ele>
        <time>2015-08-12T07:42:13.296Z</time>
      </trkpt>
      <trkpt lat="45.23669" lon="5.62611">
        <ele>534</ele>
        <time>2015-08-12T07:42:16.236Z</time>
      </trkpt>
      <trkpt lat="45.23661" lon="5.62612">
        <ele>533</ele>
        <time>2015-08-12T07:42:18.268Z</time>
      </trkpt>
      <trkpt lat="45.23633" lon="5.62602">
        <ele>533</ele>
        <time>2015-08-12T07:42:32.568Z</time>
      </trkpt>
      <trkpt lat="45.23399" lon="5.62675">
        <ele>527</ele>
        <time>2015-08-12T07:43:10.218Z</time>
      </trkpt>
      <trkpt lat="45.23394" lon="5.62688">
        <ele>528</ele>
        <time>2015-08-12T07:43:12.228Z</time>
      </trkpt>
      <trkpt lat="45.23382" lon="5.62687">
        <ele>530</ele>
        <time>2015-08-12T07:43:16.222Z</time>
      </trkpt>
      <trkpt lat="45.23378" lon="5.62699">
        <ele>528</ele>
        <time>2015-08-12T07:43:19.230Z</time>
      </trkpt>
      <trkpt lat="45.23387" lon="5.62705">
        <ele>532</ele>
        <time>2015-08-12T07:43:20.226Z</time>
      </trkpt>
      <trkpt lat="45.23402" lon="5.62735">
        <ele>522</ele>
        <time>2015-08-12T07:43:30.248Z</time>
      </trkpt>
      <trkpt lat="45.23412" lon="5.62733">
        <ele>500</ele>
        <time>2015-08-12T07:43:40.267Z</time>
      </trkpt>
      <trkpt lat="45.23423" lon="5.62739">
        <ele>498</ele>
        <time>2015-08-12T07:43:46.250Z</time>
      </trkpt>
      <trkpt lat="45.23429" lon="5.62749">
        <ele>489</ele>
        <time>2015-08-12T07:43:53.232Z</time>
      </trkpt>
      <trkpt lat="45.23457" lon="5.62744">
        <ele>471</ele>
        <time>2015-08-12T07:44:15.283Z</time>
      </trkpt>
      <trkpt lat="45.23454" lon="5.62754">
        <ele>466</ele>
        <time>2015-08-12T07:44:34.326Z</time>
      </trkpt>
      <trkpt lat="45.23485" lon="5.62758">
        <ele>448</ele>
        <time>2015-08-12T07:44:51.344Z</time>
      </trkpt>
      <trkpt lat="45.23488" lon="5.62774">
        <ele>444</ele>
        <time>2015-08-12T07:44:59.239Z</time>
      </trkpt>
      <trkpt lat="45.23481" lon="5.62771">
        <ele>442</ele>
        <time>2015-08-12T07:45:01.315Z</time>
      </trkpt>
      <trkpt lat="45.23481" lon="5.62781">
        <ele>435</ele>
        <time>2015-08-12T07:45:10.341Z</time>
      </trkpt>
      <trkpt lat="45.23476" lon="5.62786">
        <ele>439</ele>
        <time>2015-08-12T07:45:13.325Z</time>
      </trkpt>
      <trkpt lat="45.23483" lon="5.62799">
        <ele>433</ele>
        <time>2015-08-12T07:45:14.242Z</time>
      </trkpt>
      <trkpt lat="45.23496" lon="5.62804">
        <ele>429</ele>
        <time>2015-08-12T07:45:18.299Z</time>
      </trkpt>
      <trkpt lat="45.23492" lon="5.62816">
        <ele>422</ele>
        <time>2015-08-12T07:45:32.247Z</time>
      </trkpt>
      <trkpt lat="45.23491" lon="5.62827">
        <ele>419</ele>
        <time>2015-08-12T07:45:36.257Z</time>
      </trkpt>
      <trkpt lat="45.23494" lon="5.6283">
        <ele>418</ele>
        <time>2015-08-12T07:45:37.220Z</time>
      </trkpt>
      <trkpt lat="45.2349" lon="5.6285">
        <ele>422</ele>
        <time>2015-08-12T07:45:47.268Z</time>
      </trkpt>
      <trkpt lat="45.23505" lon="5.62853">
        <ele>425</ele>
        <time>2015-08-12T07:46:26.256Z</time>
      </trkpt>
      <trkpt lat="45.23514" lon="5.6287">
        <ele>423</ele>
        <time>2015-08-12T07:46:31.249Z</time>
      </trkpt>
      <trkpt lat="45.23517" lon="5.62867">
        <ele>420</ele>
        <time>2015-08-12T07:46:36.303Z</time>
      </trkpt>
      <trkpt lat="45.23527" lon="5.62876">
        <ele>416</ele>
        <time>2015-08-12T07:46:55.316Z</time>
      </trkpt>
      <trkpt lat="45.2353" lon="5.62897">
        <ele>409</ele>
        <time>2015-08-12T07:47:09.250Z</time>
      </trkpt>
      <trkpt lat="45.23554" lon="5.629">
        <ele>406</ele>
        <time>2015-08-12T07:47:24.223Z</time>
      </trkpt>
      <trkpt lat="45.23562" lon="5.62907">
        <ele>406</ele>
        <time>2015-08-12T07:47:26.227Z</time>
      </trkpt>
      <trkpt lat="45.23558" lon="5.62921">
        <ele>400</ele>
        <time>2015-08-12T07:47:47.262Z</time>
      </trkpt>
      <trkpt lat="45.2357" lon="5.62924">
        <ele>400</ele>
        <time>2015-08-12T07:47:50.316Z</time>
      </trkpt>
      <trkpt lat="45.23584" lon="5.62939">
        <ele>396</ele>
        <time>2015-08-12T07:47:53.314Z</time>
      </trkpt>
      <trkpt lat="45.23595" lon="5.62968">
        <ele>395</ele>
        <time>2015-08-12T07:48:05.265Z</time>
      </trkpt>
      <trkpt lat="45.23591" lon="5.62974">
        <ele>393</ele>
        <time>2015-08-12T07:48:09.272Z</time>
      </trkpt>
      <trkpt lat="45.23603" lon="5.62993">
        <ele>389</ele>
        <time>2015-08-12T07:48:13.265Z</time>
      </trkpt>
      <trkpt lat="45.23612" lon="5.62994">
        <ele>388</ele>
        <time>2015-08-12T07:48:14.225Z</time>
      </trkpt>
      <trkpt lat="45.23612" lon="5.63003">
        <ele>386</ele>
        <time>2015-08-12T07:48:23.270Z</time>
      </trkpt>
      <trkpt lat="45.23603" lon="5.63008">
        <ele>386</ele>
        <time>2015-08-12T07:48:26.286Z</time>
      </trkpt>
      <trkpt lat="45.2361" lon="5.63019">
        <ele>383</ele>
        <time>2015-08-12T07:48:27.221Z</time>
      </trkpt>
      <trkpt lat="45.23609" lon="5.63032">
        <ele>380</ele>
        <time>2015-08-12T07:48:29.226Z</time>
      </trkpt>
      <trkpt lat="45.23607" lon="5.63027">
        <ele>381</ele>
        <time>2015-08-12T07:48:32.342Z</time>
      </trkpt>
      <trkpt lat="45.2361" lon="5.63025">
        <ele>382</ele>
        <time>2015-08-12T07:48:33.247Z</time>
      </trkpt>
      <trkpt lat="45.23617" lon="5.6305">
        <ele>379</ele>
        <time>2015-08-12T07:48:40.232Z</time>
      </trkpt>
      <trkpt lat="45.23621" lon="5.63057">
        <ele>378</ele>
        <time>2015-08-12T07:48:43.299Z</time>
      </trkpt>
      <trkpt lat="45.23644" lon="5.63066">
        <ele>373</ele>
        <time>2015-08-12T07:48:46.261Z</time>
      </trkpt>
      <trkpt lat="45.23643" lon="5.63078">
        <ele>370</ele>
        <time>2015-08-12T07:48:49.337Z</time>
      </trkpt>
      <trkpt lat="45.23655" lon="5.63075">
        <ele>372</ele>
        <time>2015-08-12T07:48:52.251Z</time>
      </trkpt>
      <trkpt lat="45.23676" lon="5.63094">
        <ele>368</ele>
        <time>2015-08-12T07:48:58.226Z</time>
      </trkpt>
      <trkpt lat="45.2368" lon="5.63105">
        <ele>368</ele>
        <time>2015-08-12T07:49:00.300Z</time>
      </trkpt>
      <trkpt lat="45.23694" lon="5.6311">
        <ele>367</ele>
        <time>2015-08-12T07:49:02.307Z</time>
      </trkpt>
      <trkpt lat="45.237" lon="5.63121">
        <ele>363</ele>
        <time>2015-08-12T07:49:03.255Z</time>
      </trkpt>
      <trkpt lat="45.23695" lon="5.63157">
        <ele>357</ele>
        <time>2015-08-12T07:49:04.290Z</time>
      </trkpt>
      <trkpt lat="45.23717" lon="5.63158">
        <ele>356</ele>
        <time>2015-08-12T07:49:05.236Z</time>
      </trkpt>
      <trkpt lat="45.23738" lon="5.6317">
        <ele>352</ele>
        <time>2015-08-12T07:49:07.254Z</time>
      </trkpt>
      <trkpt lat="45.2374" lon="5.63195">
        <ele>333</ele>
        <time>2015-08-12T07:49:14.316Z</time>
      </trkpt>
      <trkpt lat="45.23758" lon="5.6323">
        <ele>317</ele>
        <time>2015-08-12T07:49:25.317Z</time>
      </trkpt>
      <trkpt lat="45.23768" lon="5.6328">
        <ele>305</ele>
        <time>2015-08-12T07:49:36.286Z</time>
      </trkpt>
      <trkpt lat="45.23796" lon="5.63337">
        <ele>300</ele>
        <time>2015-08-12T07:49:46.234Z</time>
      </trkpt>
      <trkpt lat="45.2388" lon="5.63352">
        <ele>288</ele>
        <time>2015-08-12T07:49:56.310Z</time>
      </trkpt>
      <trkpt lat="45.23916" lon="5.63371">
        <ele>283</ele>
        <time>2015-08-12T07:50:01.238Z</time>
      </trkpt>
      <trkpt lat="45.23922" lon="5.6338">
        <ele>282</ele>
        <time>2015-08-12T07:50:04.307Z</time>
      </trkpt>
      <trkpt lat="45.23906" lon="5.63398">
        <ele>278</ele>
        <time>2015-08-12T07:50:07.244Z</time>
      </trkpt>
      <trkpt lat="45.23871" lon="5.63459">
        <ele>268</ele>
        <time>2015-08-12T07:50:20.265Z</time>
      </trkpt>
      <trkpt lat="45.23847" lon="5.6348">
        <ele>267</ele>
        <time>2015-08-12T07:50:25.233Z</time>
      </trkpt>
      <trkpt lat="45.2385" lon="5.63494">
        <ele>266</ele>
        <time>2015-08-12T07:50:27.259Z</time>
      </trkpt>
      <trkpt lat="45.2381" lon="5.6352">
        <ele>263</ele>
        <time>2015-08-12T07:50:37.259Z</time>
      </trkpt>
      <trkpt lat="45.23817" lon="5.63522">
        <ele>270</ele>
        <time>2015-08-12T07:55:11.629Z</time>
      </trkpt>
    </trkseg>
  </trk>
</gpx>